createdAt,value
2022-07-29T00:03:07.010Z,54
2022-07-29T00:23:06.927Z,54.5
2022-07-29T01:03:06.841Z,56.4
2022-07-29T01:23:06.858Z,57.8
2022-07-29T01:43:06.762Z,59.2
2022-07-29T02:03:06.730Z,60.6
2022-07-29T02:23:06.729Z,61.6
2022-07-29T02:43:06.636Z,62.1
2022-07-29T03:03:06.662Z,63.5
2022-07-29T03:23:06.560Z,63.9
2022-07-29T03:43:06.534Z,64.7
2022-07-29T04:03:10.798Z,66
2022-07-29T04:23:06.452Z,66.7
2022-07-29T04:43:06.396Z,66.9
2022-07-29T05:03:06.435Z,66
2022-07-29T05:23:06.326Z,65.2
2022-07-29T05:43:06.289Z,77.6
2022-07-29T06:03:06.258Z,87.3
2022-07-29T06:23:06.198Z,86.3
2022-07-29T06:43:06.159Z,91.5
2022-07-29T07:23:06.076Z,91.6
2022-07-29T07:43:06.061Z,86.4
2022-07-29T08:03:06.007Z,83.9
2022-07-29T08:23:05.965Z,79.9
2022-07-29T08:43:06.402Z,76
2022-07-29T09:23:05.850Z,72
2022-07-29T09:43:05.799Z,75.7
2022-07-29T10:03:05.812Z,74.4
2022-07-29T10:43:05.675Z,79.8
2022-07-29T11:03:08.602Z,79.7
2022-07-29T11:23:05.593Z,81.4
2022-07-29T12:03:05.560Z,79.8
2022-07-29T12:23:05.468Z,74.7
2022-07-29T12:43:05.435Z,73.7
2022-07-29T13:03:05.382Z,69.9
2022-07-29T13:23:05.361Z,67.7
2022-07-29T13:43:05.310Z,64.3
2022-07-29T14:03:05.268Z,58.2
2022-07-29T14:23:05.244Z,54.9
2022-07-29T14:43:05.181Z,52.3
2022-07-29T15:03:05.191Z,49.5
2022-07-29T15:23:05.112Z,48.1
2022-07-29T15:43:05.105Z,46.5
2022-07-29T16:03:05.015Z,47.3
2022-07-29T16:23:04.974Z,46.6
2022-07-29T16:43:04.954Z,45.7
2022-07-29T17:03:05.139Z,46.6
2022-07-29T17:23:05.103Z,48
2022-07-29T17:43:04.812Z,47.7
2022-07-29T18:03:04.818Z,51.4
2022-07-29T18:23:04.738Z,52.9
2022-07-29T18:43:04.677Z,56.4
2022-07-29T19:03:04.776Z,60.4
2022-07-29T19:23:04.594Z,67.2
2022-07-29T19:43:04.550Z,70.1
2022-07-29T20:03:04.571Z,76.4
2022-07-29T20:23:04.464Z,78.8
2022-07-29T20:43:04.428Z,82.2
2022-07-29T21:03:04.441Z,84.5
2022-07-29T21:23:04.338Z,87
2022-07-29T21:43:04.317Z,89.3
2022-07-29T22:03:04.269Z,90.8
2022-07-29T22:23:04.238Z,91.2
2022-07-29T22:43:04.203Z,92.6
2022-07-29T23:03:04.159Z,94.3
2022-07-29T23:23:04.110Z,94.2
2022-07-29T23:43:08.435Z,94.7
